Time;durP1;ratioP1;P1;durP2;ratioP2;P2;SDS_P1;SDS_P2;PMS_P1;PMS_P2;Temp;Humidity;BMP_temperature;BMP_pressure;BME280_temperature;BME280_humidity;BME280_pressure;Samples;Min_cycle;Max_cycle;Signal;HPM_P1;HPM_P2
2023/08/15 00:01:11;;;;;;;0.55;0.55;;;;;;;22.60;60.02;100250.75;4415050;32;34515;-83
2023/08/15 00:03:39;;;;;;;1.02;1.02;;;;;;;22.53;60.19;100252.25;4414473;32;34397;-83
2023/08/15 00:06:07;;;;;;;1.35;0.70;;;;;;;22.45;60.64;100247.53;4429050;32;33967;-82
2023/08/15 00:08:34;;;;;;;0.60;0.60;;;;;;;22.42;60.88;100249.66;4404288;32;32261;-82
2023/08/15 00:11:02;;;;;;;0.40;0.40;;;;;;;22.38;60.86;100254.44;4431835;32;34615;-83
2023/08/15 00:13:30;;;;;;;1.62;0.90;;;;;;;22.38;60.81;100253.59;4410355;32;33408;-82
2023/08/15 00:15:57;;;;;;;0.68;0.68;;;;;;;22.37;61.05;100249.19;4426028;32;33928;-82
2023/08/15 00:18:25;;;;;;;2.05;0.95;;;;;;;22.43;60.87;100252.22;4430725;32;32697;-82
2023/08/15 00:20:53;;;;;;;0.98;0.90;;;;;;;22.47;60.58;100252.81;4416065;32;34788;-82
2023/08/15 00:23:20;;;;;;;0.57;0.37;;;;;;;22.32;61.02;100243.38;4433098;32;34837;-83
2023/08/15 00:25:49;;;;;;;1.12;1.02;;;;;;;22.37;60.80;100241.97;4431672;32;33544;-84
2023/08/15 00:28:16;;;;;;;1.00;0.80;;;;;;;22.22;61.50;100238.78;4421442;32;33940;-83
2023/08/15 00:30:44;;;;;;;0.52;0.52;;;;;;;22.36;61.18;100239.41;4430826;32;33964;-83
2023/08/15 00:33:11;;;;;;;0.77;0.77;;;;;;;22.29;61.06;100227.47;4414525;32;34695;-84
2023/08/15 00:35:39;;;;;;;0.95;0.47;;;;;;;22.05;62.05;100239.31;4422749;32;34594;-83
2023/08/15 00:38:07;;;;;;;1.17;0.70;;;;;;;22.28;61.13;100234.69;4432547;32;33838;-82
2023/08/15 00:40:38;;;;;;;0.95;0.75;;;;;;;22.07;62.06;100234.63;4425599;32;32988;-82
2023/08/15 00:43:07;;;;;;;0.40;0.40;;;;;;;22.34;61.26;100231.47;4443745;32;33890;-82
2023/08/15 00:45:38;;;;;;;2.65;0.65;;;;;;;22.49;60.49;100240.06;4420081;32;33058;-83
2023/08/15 00:48:06;;;;;;;0.65;0.65;;;;;;;22.28;61.12;100231.16;4428746;32;34535;-82
2023/08/15 00:50:34;;;;;;;0.50;0.50;;;;;;;22.21;61.57;100238.88;4433418;32;34649;-82
2023/08/15 00:53:03;;;;;;;2.65;1.08;;;;;;;22.27;61.24;100237.53;4419872;32;33370;-82
2023/08/15 00:55:32;;;;;;;0.30;0.30;;;;;;;22.19;61.66;100233.63;4431528;32;33819;-82
2023/08/15 00:58:00;;;;;;;0.50;0.50;;;;;;;22.32;60.95;100233.44;4405849;32;32571;-82
2023/08/15 01:00:28;;;;;;;0.93;0.88;;;;;;;22.24;61.14;100238.62;4419875;32;32284;-82
2023/08/15 01:02:56;;;;;;;1.02;0.75;;;;;;;22.22;61.17;100233.37;4405851;32;33743;-83
2023/08/15 01:05:25;;;;;;;0.43;0.43;;;;;;;22.44;60.66;100226.16;4406408;32;33176;-83
2023/08/15 01:07:53;;;;;;;0.68;0.68;;;;;;;22.21;61.39;100231.66;4419455;32;33773;-82
2023/08/15 01:10:21;;;;;;;0.37;0.37;;;;;;;22.10;61.85;100223.63;4416895;32;34291;-82
2023/08/15 01:12:57;;;;;;;0.70;0.70;;;;;;;21.99;62.25;100237.16;4432672;32;34709;-82
2023/08/15 01:15:29;;;;;;;2.28;1.20;;;;;;;21.96;62.36;100234.69;4420431;32;33443;-82
2023/08/15 01:18:13;;;;;;;0.83;0.83;;;;;;;22.02;61.93;100242.25;4417435;32;33303;-83
2023/08/15 01:20:41;;;;;;;1.27;1.00;;;;;;;22.02;62.08;100236.87;4432421;32;34200;-81
2023/08/15 01:23:12;;;;;;;1.27;1.02;;;;;;;21.99;61.88;100237.16;4419008;32;33845;-82
2023/08/15 01:25:41;;;;;;;1.12;0.90;;;;;;;21.96;62.12;100237.41;4416666;32;33642;-81
2023/08/15 01:28:14;;;;;;;0.80;0.80;;;;;;;22.02;61.87;100236.00;4406718;32;32755;-81
2023/08/15 01:31:20;;;;;;;0.73;0.73;;;;;;;22.01;61.87;100235.16;4418583;32;32803;-82
2023/08/15 01:34:07;;;;;;;0.82;0.80;;;;;;;22.29;60.76;100238.22;4389189;32;33670;-82
2023/08/15 01:36:39;;;;;;;0.52;0.52;;;;;;;22.31;60.74;100242.47;4428715;32;32777;-82
2023/08/15 01:39:08;;;;;;;1.70;1.20;;;;;;;22.21;61.17;100246.94;4429955;32;34011;-82
2023/08/15 01:41:38;;;;;;;1.37;1.20;;;;;;;21.97;61.96;100244.47;4420252;32;34049;-82
2023/08/15 01:44:07;;;;;;;0.93;0.90;;;;;;;21.98;61.98;100249.75;4416150;32;33693;-82
2023/08/15 01:46:35;;;;;;;0.40;0.40;;;;;;;21.80;62.30;100243.22;4415967;32;33506;-82
2023/08/15 01:49:03;;;;;;;2.62;1.52;;;;;;;21.89;62.22;100241.59;4413151;32;34368;-82
2023/08/15 01:51:30;;;;;;;0.22;0.22;;;;;;;21.79;62.44;100235.25;4414338;32;33363;-81
2023/08/15 01:53:58;;;;;;;1.27;1.17;;;;;;;21.65;62.70;100239.97;4419701;32;33543;-81
2023/08/15 01:56:26;;;;;;;3.35;1.33;;;;;;;21.76;62.47;100238.22;4417570;32;34656;-81
2023/08/15 01:58:54;;;;;;;0.93;0.93;;;;;;;21.70;62.62;100243.13;4420296;32;32948;-81
2023/08/15 02:01:22;;;;;;;0.60;0.60;;;;;;;21.69;62.82;100241.41;4419744;32;33575;-81
2023/08/15 02:03:50;;;;;;;0.65;0.40;;;;;;;21.66;62.84;100241.66;4414529;32;33467;-82
2023/08/15 02:06:17;;;;;;;1.75;0.32;;;;;;;21.67;62.96;100238.00;4414549;32;33523;-81
2023/08/15 02:08:45;;;;;;;1.37;1.27;;;;;;;21.70;62.72;100237.75;4432032;32;33245;-80
2023/08/15 02:11:13;;;;;;;0.90;0.65;;;;;;;21.59;62.96;100240.47;4416703;32;32708;-81
2023/08/15 02:13:41;;;;;;;0.40;0.40;;;;;;;21.59;62.91;100239.59;4430418;32;32780;-81
2023/08/15 02:16:08;;;;;;;0.62;0.47;;;;;;;21.52;63.14;100236.59;4421296;32;32783;-81
2023/08/15 02:18:38;;;;;;;0.30;0.30;;;;;;;21.40;63.62;100229.53;4430845;32;33389;-83
2023/08/15 02:21:09;;;;;;;3.83;1.62;;;;;;;21.42;63.63;100232.94;4419377;32;34458;-82
2023/08/15 02:23:37;;;;;;;0.82;0.82;;;;;;;21.43;63.66;100231.97;4431558;32;34151;-83
2023/08/15 02:26:05;;;;;;;0.77;0.68;;;;;;;21.44;63.58;100237.19;4428975;32;32036;-83
2023/08/15 02:28:33;;;;;;;0.73;0.73;;;;;;;21.55;63.27;100232.78;4405972;32;32122;-83
2023/08/15 02:31:04;;;;;;;3.60;1.10;;;;;;;21.53;63.27;100232.91;4416697;32;33644;-83
2023/08/15 02:33:33;;;;;;;0.50;0.50;;;;;;;21.52;63.16;100225.84;4432572;32;33078;-83
2023/08/15 02:36:07;;;;;;;0.52;0.52;;;;;;;21.49;63.36;100228.75;4406193;32;33607;-83
2023/08/15 02:38:37;;;;;;;0.65;0.65;;;;;;;21.62;63.01;100228.62;4429756;32;32702;-83
2023/08/15 02:41:05;;;;;;;0.98;0.55;;;;;;;21.67;62.62;100231.78;4429968;32;33090;-83
2023/08/15 02:43:33;;;;;;;1.27;0.45;;;;;;;21.58;62.71;100232.53;4417188;32;33227;-83
2023/08/15 02:46:01;;;;;;;1.40;0.75;;;;;;;21.50;63.07;100225.09;4407140;32;32450;-83
2023/08/15 02:48:28;;;;;;;0.80;0.80;;;;;;;21.57;62.64;100226.31;4419078;32;32351;-83
2023/08/15 02:50:56;;;;;;;0.95;0.85;;;;;;;21.46;63.12;100229.03;4418572;32;32648;-83
2023/08/15 02:53:24;;;;;;;1.30;0.65;;;;;;;21.39;63.42;100236.72;4417532;32;33452;-83
2023/08/15 02:55:52;;;;;;;0.43;0.43;;;;;;;21.36;63.50;100228.91;4419912;32;33858;-83
2023/08/15 02:58:19;;;;;;;1.15;0.98;;;;;;;21.47;63.29;100226.22;4428224;32;32399;-83
2023/08/15 03:00:47;;;;;;;1.15;1.05;;;;;;;21.56;62.87;100231.81;4427940;32;33943;-83
2023/08/15 03:03:15;;;;;;;0.88;0.88;;;;;;;21.57;62.64;100229.00;4415847;32;33899;-83
2023/08/15 03:05:43;;;;;;;0.32;0.32;;;;;;;21.47;62.95;100226.22;4441420;32;33334;-83
2023/08/15 03:08:11;;;;;;;0.57;0.52;;;;;;;21.30;63.58;100223.16;4404797;32;31987;-83
2023/08/15 03:10:39;;;;;;;1.42;1.33;;;;;;;21.40;63.27;100224.16;4416386;32;33977;-83
2023/08/15 03:13:07;;;;;;;0.52;0.52;;;;;;;21.34;63.61;100238.09;4410916;32;34464;-83
2023/08/15 03:15:36;;;;;;;1.10;0.28;;;;;;;21.28;63.65;100231.34;4427608;32;33223;-83
2023/08/15 03:18:04;;;;;;;1.73;1.10;;;;;;;21.40;63.35;100232.19;4403259;32;32607;-84
2023/08/15 03:20:32;;;;;;;1.00;0.85;;;;;;;21.30;63.52;100223.16;4406278;32;32734;-83
2023/08/15 03:23:00;;;;;;;3.10;2.12;;;;;;;21.36;63.22;100230.75;4416699;32;33495;-83
2023/08/15 03:25:27;;;;;;;5.18;1.17;;;;;;;21.40;62.92;100221.47;4433441;32;33915;-83
2023/08/15 03:27:55;;;;;;;0.90;0.90;;;;;;;21.34;63.31;100219.28;4418283;32;31956;-83
2023/08/15 03:30:23;;;;;;;0.60;0.60;;;;;;;21.44;62.78;100217.53;4418498;32;34159;-83
2023/08/15 03:32:52;;;;;;;0.43;0.43;;;;;;;21.53;62.37;100224.84;4404712;32;34022;-83
2023/08/15 03:35:20;;;;;;;0.82;0.80;;;;;;;21.32;63.23;100226.63;4418191;32;34843;-83
2023/08/15 03:37:49;;;;;;;1.25;1.15;;;;;;;21.30;63.31;100223.16;4433266;32;33762;-83
2023/08/15 03:40:17;;;;;;;0.90;0.90;;;;;;;21.22;63.61;100230.03;4418257;32;33816;-82
2023/08/15 03:42:45;;;;;;;1.17;0.95;;;;;;;21.14;63.82;100227.09;4408107;32;33639;-82
2023/08/15 03:45:12;;;;;;;0.65;0.65;;;;;;;21.06;64.34;100226.84;4431547;32;33900;-83
2023/08/15 03:47:40;;;;;;;0.35;0.35;;;;;;;21.18;63.88;100230.41;4420197;32;32945;-82
2023/08/15 03:50:10;;;;;;;0.90;0.90;;;;;;;21.13;64.05;100229.91;4434073;32;33884;-82
2023/08/15 03:52:38;;;;;;;0.40;0.40;;;;;;;21.25;63.77;100220.00;4433582;32;33896;-82
2023/08/15 03:55:06;;;;;;;1.27;1.17;;;;;;;21.42;62.69;100227.59;4431783;32;33403;-82
2023/08/15 03:57:33;;;;;;;0.50;0.50;;;;;;;21.14;64.04;100235.16;4432448;32;33249;-82
2023/08/15 04:00:05;;;;;;;1.48;0.60;;;;;;;21.29;63.33;100237.56;4420441;32;32041;-83
2023/08/15 04:02:39;;;;;;;0.37;0.37;;;;;;;21.22;63.81;100238.09;4420054;32;33416;-83
2023/08/15 04:05:07;;;;;;;0.85;0.85;;;;;;;21.28;63.47;100238.56;4433825;32;34766;-83
2023/08/15 04:07:35;;;;;;;0.35;0.35;;;;;;;21.21;63.92;100244.41;4431741;32;33650;-82
2023/08/15 04:10:04;;;;;;;1.02;0.75;;;;;;;21.04;64.35;100239.56;4418607;32;33182;-82
2023/08/15 04:12:33;;;;;;;0.57;0.57;;;;;;;21.13;64.30;100249.56;4433141;32;34415;-83
2023/08/15 04:15:01;;;;;;;0.70;0.70;;;;;;;21.15;64.33;100241.38;4416687;32;34592;-82
2023/08/15 04:17:30;;;;;;;0.57;0.50;;;;;;;21.37;63.82;100251.28;4433148;32;33330;-83
2023/08/15 04:19:58;;;;;;;0.62;0.50;;;;;;;21.40;63.90;100240.25;4418239;32;33832;-82
2023/08/15 04:22:26;;;;;;;0.17;0.17;;;;;;;21.47;63.89;100241.47;4421233;32;34043;-83
2023/08/15 04:24:53;;;;;;;0.80;0.80;;;;;;;21.55;63.55;100239.00;4421439;32;33134;-83
2023/08/15 04:27:21;;;;;;;0.45;0.45;;;;;;;21.56;63.48;100247.94;4417466;32;33116;-83
2023/08/15 04:29:49;;;;;;;1.45;1.17;;;;;;;21.69;62.82;100246.78;4405831;32;32269;-83
2023/08/15 04:32:17;;;;;;;3.42;1.52;;;;;;;21.48;64.22;100253.94;4419699;32;32978;-83
2023/08/15 04:34:45;;;;;;;1.17;1.02;;;;;;;21.48;64.62;100246.72;4431563;32;33009;-83
2023/08/15 04:37:17;;;;;;;0.20;0.20;;;;;;;21.60;64.75;100246.69;4420864;32;33484;-83
2023/08/15 04:39:45;;;;;;;0.50;0.50;;;;;;;21.73;64.16;100252.75;4432324;32;35037;-82
2023/08/15 04:42:14;;;;;;;0.50;0.50;;;;;;;21.63;64.72;100251.81;4430489;32;31552;-82
2023/08/15 04:44:44;;;;;;;0.62;0.62;;;;;;;21.93;63.94;100251.09;4433080;32;32424;-83
2023/08/15 04:47:12;;;;;;;0.40;0.40;;;;;;;22.23;62.91;100248.53;4432226;32;33667;-83
2023/08/15 04:49:39;;;;;;;1.08;0.50;;;;;;;22.29;62.49;100249.00;4417444;32;34058;-82
2023/08/15 04:52:07;;;;;;;1.50;1.15;;;;;;;22.17;63.24;100251.75;4418578;32;33346;-83
2023/08/15 04:54:35;;;;;;;0.75;0.73;;;;;;;22.23;63.41;100251.22;4430487;32;34076;-82
2023/08/15 04:57:03;;;;;;;0.60;0.55;;;;;;;22.13;64.14;100258.38;4421654;32;33690;-82
2023/08/15 04:59:30;;;;;;;7.05;1.52;;;;;;;22.23;63.75;100251.22;4418937;32;32510;-83
2023/08/15 05:01:58;;;;;;;0.77;0.77;;;;;;;22.45;63.25;100254.75;4420293;32;33308;-83
2023/08/15 05:04:25;;;;;;;1.80;1.65;;;;;;;22.75;62.30;100254.81;4416857;32;33363;-82
2023/08/15 05:06:53;;;;;;;1.95;1.62;;;;;;;23.04;61.21;100256.81;4430306;32;31882;-82
2023/08/15 05:09:21;;;;;;;0.80;0.80;;;;;;;23.12;61.22;100257.00;4433169;32;33797;-83
2023/08/15 05:11:48;;;;;;;0.62;0.62;;;;;;;23.12;61.01;100248.03;4419216;32;33981;-83
2023/08/15 05:14:16;;;;;;;0.43;0.43;;;;;;;23.10;61.29;100256.25;4434790;32;34575;-82
2023/08/15 05:16:45;;;;;;;0.85;0.85;;;;;;;23.12;61.91;100259.69;4431532;32;33432;-82
2023/08/15 05:19:13;;;;;;;0.43;0.43;;;;;;;23.17;62.08;100246.66;4433158;32;34359;-82
2023/08/15 05:21:41;;;;;;;0.82;0.70;;;;;;;23.33;61.75;100256.06;4417841;32;33336;-83
2023/08/15 05:24:09;;;;;;;17.83;2.28;;;;;;;23.47;61.38;100255.66;4404309;32;32519;-83
2023/08/15 05:26:37;;;;;;;2.05;1.55;;;;;;;23.49;61.34;100256.34;4405335;32;33025;-83
2023/08/15 05:29:04;;;;;;;3.95;1.27;;;;;;;23.75;60.76;100257.56;4415754;32;33050;-83
2023/08/15 05:31:32;;;;;;;1.67;1.58;;;;;;;23.91;60.61;100250.78;4420454;32;32557;-82
2023/08/15 05:34:00;;;;;;;2.25;0.68;;;;;;;23.82;61.07;100259.69;4431843;32;33767;-82
2023/08/15 05:36:28;;;;;;;0.73;0.73;;;;;;;23.92;61.00;100253.31;4434647;32;32999;-82
2023/08/15 05:38:56;;;;;;;0.32;0.32;;;;;;;24.33;60.53;100255.88;4404957;32;32788;-82
2023/08/15 05:41:23;;;;;;;2.87;1.42;;;;;;;24.38;60.64;100259.84;4419729;32;32966;-82
2023/08/15 05:43:51;;;;;;;1.12;1.02;;;;;;;24.50;60.62;100252.47;4419003;32;33914;-83
2023/08/15 05:46:19;;;;;;;2.80;1.17;;;;;;;24.66;60.40;100251.84;4416065;32;34197;-82
2023/08/15 05:48:46;;;;;;;2.62;1.60;;;;;;;24.55;60.75;100249.31;4431653;32;33965;-82
2023/08/15 05:51:14;;;;;;;1.00;0.90;;;;;;;24.92;58.99;100255.56;4416773;32;33166;-82
2023/08/15 05:53:42;;;;;;;2.65;1.37;;;;;;;25.21;59.63;100260.91;4401678;32;32987;-82
2023/08/15 05:56:09;;;;;;;1.33;1.23;;;;;;;25.25;58.86;100264.13;4403866;32;32395;-82
2023/08/15 05:58:37;;;;;;;2.15;1.23;;;;;;;25.72;57.44;100255.88;4412934;32;33043;-82
2023/08/15 06:01:05;;;;;;;1.20;1.05;;;;;;;25.99;56.29;100257.69;4429133;32;33552;-82
2023/08/15 06:03:33;;;;;;;1.55;1.45;;;;;;;26.04;56.13;100249.97;4429807;32;34435;-82
2023/08/15 06:06:20;;;;;;;3.10;1.45;;;;;;;25.87;55.57;100248.09;4419326;32;32821;-82
2023/08/15 06:08:48;;;;;;;0.82;0.82;;;;;;;25.98;55.36;100250.59;4428480;32;34068;-82
2023/08/15 06:11:16;;;;;;;1.85;0.80;;;;;;;26.30;53.68;100250.00;4426032;32;33867;-81
2023/08/15 06:13:44;;;;;;;0.68;0.68;;;;;;;26.21;54.22;100250.97;4419510;32;34444;-82
2023/08/15 06:16:12;;;;;;;2.72;1.02;;;;;;;26.57;53.48;100245.50;4431288;32;33012;-81
2023/08/15 06:18:41;;;;;;;2.30;0.80;;;;;;;26.63;52.14;100245.69;4430474;32;33839;-81
2023/08/15 06:21:09;;;;;;;1.20;0.90;;;;;;;26.76;52.12;100240.69;4414650;32;34678;-81
2023/08/15 06:23:37;;;;;;;1.42;0.85;;;;;;;26.80;52.31;100244.78;4406624;32;33349;-80
2023/08/15 06:26:05;;;;;;;0.60;0.60;;;;;;;26.88;51.07;100240.44;4412111;32;32313;-80
2023/08/15 06:28:32;;;;;;;0.50;0.50;;;;;;;27.04;51.08;100248.62;4408350;32;33798;-80
2023/08/15 06:31:02;;;;;;;1.20;0.57;;;;;;;27.79;49.14;100241.47;4397365;32;32804;-80
2023/08/15 06:33:30;;;;;;;0.40;0.40;;;;;;;27.32;49.14;100246.59;4416505;32;34098;-80
2023/08/15 06:35:57;;;;;;;3.20;0.77;;;;;;;27.58;48.65;100243.75;4400559;32;34428;-81
2023/08/15 06:38:25;;;;;;;1.45;0.43;;;;;;;27.66;48.21;100249.22;4427381;32;34255;-81
2023/08/15 06:40:53;;;;;;;1.50;1.40;;;;;;;28.03;47.58;100239.81;4396033;32;34346;-81
2023/08/15 06:43:21;;;;;;;0.85;0.85;;;;;;;28.13;47.64;100236.91;4433696;32;32111;-81
2023/08/15 06:45:50;;;;;;;1.08;0.75;;;;;;;27.89;47.35;100238.59;4407154;32;32584;-81
2023/08/15 06:48:17;;;;;;;0.75;0.70;;;;;;;28.20;47.21;100238.78;4410111;32;32956;-81
2023/08/15 06:50:53;;;;;;;4.85;1.15;;;;;;;28.43;44.96;100243.53;4419335;32;31898;-81
2023/08/15 06:53:21;;;;;;;5.32;1.35;;;;;;;28.80;45.13;100234.81;4411127;32;33875;-81
2023/08/15 06:55:49;;;;;;;0.82;0.82;;;;;;;28.48;44.50;100241.16;4418929;32;33395;-81
2023/08/15 06:58:17;;;;;;;0.93;0.62;;;;;;;28.58;44.77;100239.09;4422710;32;32967;-81
2023/08/15 07:00:45;;;;;;;1.33;1.20;;;;;;;28.51;44.09;100241.66;4421325;32;34098;-81
2023/08/15 07:03:15;;;;;;;4.07;0.60;;;;;;;28.60;43.81;100241.66;4421632;32;32355;-81
2023/08/15 07:05:44;;;;;;;0.95;0.93;;;;;;;28.50;44.55;100236.41;4419559;32;32676;-82
2023/08/15 07:08:16;;;;;;;2.25;0.95;;;;;;;28.37;45.29;100241.50;4420493;32;33683;-81
2023/08/15 07:10:44;;;;;;;1.43;0.73;;;;;;;28.82;44.13;100232.78;4407762;32;32646;-81
2023/08/15 07:13:12;;;;;;;3.03;1.37;;;;;;;28.73;43.00;100231.09;4398777;32;32427;-82
2023/08/15 07:15:39;;;;;;;0.37;0.37;;;;;;;28.84;42.88;100228.84;4414219;32;32714;-81
2023/08/15 07:18:07;;;;;;;0.82;0.68;;;;;;;28.63;43.77;100230.41;4411543;32;33298;-81
2023/08/15 07:20:35;;;;;;;0.73;0.73;;;;;;;28.55;43.28;100231.31;4410252;32;34346;-81
2023/08/15 07:23:04;;;;;;;6.95;2.22;;;;;;;28.66;43.40;100230.09;4422488;32;33672;-81
2023/08/15 07:25:32;;;;;;;0.75;0.75;;;;;;;28.91;42.74;100230.84;4403349;32;33437;-81
2023/08/15 07:28:00;;;;;;;0.75;0.75;;;;;;;28.96;43.29;100225.78;4412564;32;33755;-81
2023/08/15 07:30:28;;;;;;;0.65;0.65;;;;;;;29.20;42.75;100233.84;4415112;32;33589;-80
2023/08/15 07:32:56;;;;;;;2.53;0.90;;;;;;;29.17;42.82;100236.06;4411869;32;33823;-81
2023/08/15 07:35:24;;;;;;;1.00;1.00;;;;;;;29.06;42.37;100238.16;4425763;32;32420;-81
2023/08/15 07:37:52;;;;;;;28.90;1.12;;;;;;;29.30;42.88;100233.63;4421320;32;33577;-81
2023/08/15 07:40:21;;;;;;;1.48;1.23;;;;;;;29.25;43.57;100234.16;4412841;32;34782;-81
2023/08/15 07:42:49;;;;;;;0.40;0.40;;;;;;;29.71;43.28;100226.09;4411997;32;32930;-81
2023/08/15 07:45:17;;;;;;;4.37;2.42;;;;;;;29.97;42.87;100223.00;4413431;32;32242;-82
2023/08/15 07:47:48;;;;;;;1.85;1.10;;;;;;;29.89;42.28;100222.22;4427976;32;33837;-81
2023/08/15 07:50:25;;;;;;;1.02;0.82;;;;;;;29.87;42.36;100225.16;4404313;32;34700;-81
2023/08/15 07:52:55;;;;;;;0.70;0.70;;;;;;;30.39;41.97;100224.38;4413719;32;32931;-81
2023/08/15 07:55:22;;;;;;;1.10;1.00;;;;;;;30.32;41.49;100224.25;4428780;32;32838;-81
2023/08/15 07:57:50;;;;;;;0.60;0.60;;;;;;;30.37;40.78;100231.03;4411517;32;33717;-81
2023/08/15 08:00:18;;;;;;;2.90;0.95;;;;;;;29.96;41.55;100228.62;4411276;32;33250;-81
2023/08/15 08:02:47;;;;;;;0.82;0.80;;;;;;;30.20;42.01;100228.47;4418324;32;34374;-82
2023/08/15 08:05:16;;;;;;;1.75;1.65;;;;;;;30.51;40.94;100222.03;4416052;32;31864;-81
2023/08/15 08:07:44;;;;;;;1.77;1.37;;;;;;;30.68;40.28;100223.56;4428687;32;33995;-81
2023/08/15 08:10:12;;;;;;;0.73;0.70;;;;;;;30.59;41.30;100219.25;4425593;32;33010;-81
2023/08/15 08:12:40;;;;;;;1.02;1.02;;;;;;;30.88;41.36;100217.59;4417591;32;32932;-81
2023/08/15 08:15:08;;;;;;;0.30;0.30;;;;;;;30.73;40.09;100215.72;4434415;32;34611;-82
2023/08/15 08:17:37;;;;;;;1.62;1.05;;;;;;;30.59;39.99;100219.25;4421328;32;33135;-81
2023/08/15 08:20:12;;;;;;;0.73;0.73;;;;;;;30.23;40.90;100222.63;4418975;32;33901;-82
2023/08/15 08:22:40;;;;;;;1.00;0.90;;;;;;;30.12;41.08;100220.34;4419688;32;33331;-82
2023/08/15 08:25:16;;;;;;;1.35;1.25;;;;;;;30.90;40.56;100216.34;4426540;32;33322;-81
2023/08/15 08:27:46;;;;;;;0.93;0.82;;;;;;;30.77;39.75;100217.03;4421497;32;33640;-81
2023/08/15 08:30:15;;;;;;;2.20;0.77;;;;;;;30.61;39.64;100217.16;4430675;32;33477;-82
2023/08/15 08:32:43;;;;;;;1.08;0.95;;;;;;;31.03;40.82;100216.53;4430666;32;33869;-82
2023/08/15 08:35:15;;;;;;;1.60;1.50;;;;;;;31.16;38.94;100210.41;4418061;32;33055;-81
2023/08/15 08:37:49;;;;;;;0.80;0.80;;;;;;;31.34;40.00;100210.88;4409648;32;33968;-80
2023/08/15 08:40:18;;;;;;;0.43;0.43;;;;;;;30.98;38.95;100207.22;4433800;32;34802;-82
2023/08/15 08:42:46;;;;;;;0.40;0.40;;;;;;;30.93;38.97;100206.94;4428364;32;33472;-81
2023/08/15 08:45:14;;;;;;;0.77;0.77;;;;;;;31.29;38.14;100210.59;4431702;32;33232;-81
2023/08/15 08:47:43;;;;;;;0.85;0.85;;;;;;;31.62;38.67;100204.69;4404195;32;32736;-82
2023/08/15 08:50:11;;;;;;;0.57;0.47;;;;;;;31.86;37.82;100206.22;4431798;32;33865;-82
2023/08/15 08:52:49;;;;;;;3.45;1.20;;;;;;;31.65;37.37;100204.28;4433012;32;34509;-82
2023/08/15 08:55:19;;;;;;;0.73;0.73;;;;;;;32.06;37.22;100211.84;4432832;32;33306;-82
2023/08/15 08:57:49;;;;;;;1.37;1.27;;;;;;;31.82;36.99;100208.47;4426942;32;33596;-82
2023/08/15 09:00:21;;;;;;;0.85;0.85;;;;;;;31.91;35.88;100208.34;4430615;32;34011;-82
2023/08/15 09:02:49;;;;;;;;;;;;;;;31.79;35.85;100208.81;4420461;32;33673;-83
2023/08/15 09:05:17;;;;;;;0.45;0.45;;;;;;;32.23;37.13;100204.19;4434861;32;32988;-82
2023/08/15 09:07:45;;;;;;;10.05;1.15;;;;;;;32.51;35.55;100196.87;4427583;32;33929;-82
2023/08/15 09:10:13;;;;;;;2.15;0.73;;;;;;;32.29;35.85;100196.06;4425552;32;34766;-82
2023/08/15 09:12:42;;;;;;;0.47;0.47;;;;;;;32.48;34.99;100193.72;4413319;32;32735;-82
2023/08/15 09:15:10;;;;;;;2.47;1.42;;;;;;;32.50;35.41;100191.62;4400311;32;33618;-83
2023/08/15 09:17:39;;;;;;;1.65;1.23;;;;;;;32.11;36.40;100203.91;4428514;32;33596;-82
2023/08/15 09:20:11;;;;;;;0.50;0.40;;;;;;;32.45;34.14;100194.09;4414648;32;34244;-82
2023/08/15 09:22:41;;;;;;;0.93;0.90;;;;;;;33.02;34.09;100196.56;4413800;32;33198;-83
2023/08/15 09:25:10;;;;;;;6.40;1.40;;;;;;;33.07;32.80;100194.06;4413764;32;32340;-82
2023/08/15 09:27:38;;;;;;;1.15;1.08;;;;;;;33.17;34.68;100193.69;4426317;32;33391;-82
2023/08/15 09:30:08;;;;;;;0.60;0.50;;;;;;;33.33;32.53;100187.00;4413617;32;33040;-83
2023/08/15 09:32:38;;;;;;;0.88;0.88;;;;;;;32.80;34.93;100184.84;4413989;32;34549;-83
2023/08/15 09:35:08;;;;;;;1.02;0.95;;;;;;;33.21;33.30;100185.91;4425412;32;33088;-83
2023/08/15 09:37:44;;;;;;;2.33;0.45;;;;;;;32.80;33.37;100181.25;4426636;32;33213;-82
2023/08/15 09:40:22;;;;;;;1.48;0.77;;;;;;;33.58;32.85;100184.56;4401461;32;32596;-82
2023/08/15 09:42:54;;;;;;;10.48;1.42;;;;;;;33.72;32.49;100188.19;4426634;32;34584;-83
2023/08/15 09:45:22;;;;;;;2.90;1.52;;;;;;;33.49;31.88;100191.28;4413496;32;32996;-83
2023/08/15 09:47:50;;;;;;;0.60;0.60;;;;;;;33.52;31.76;100190.84;4403867;32;32602;-83
2023/08/15 09:50:17;;;;;;;0.37;0.37;;;;;;;33.46;32.56;100186.22;4425250;32;34709;-82
2023/08/15 09:52:46;;;;;;;0.77;0.77;;;;;;;33.87;32.97;100188.81;4425095;32;32444;-82
2023/08/15 09:55:19;;;;;;;1.08;0.95;;;;;;;33.94;30.61;100188.81;4400477;32;32201;-82
2023/08/15 09:57:47;;;;;;;0.77;0.77;;;;;;;34.06;31.23;100187.19;4422589;32;33297;-83
2023/08/15 10:00:16;;;;;;;1.08;0.95;;;;;;;34.10;31.03;100180.22;4413377;32;34121;-83
2023/08/15 10:02:55;;;;;;;3.83;1.90;;;;;;;34.15;30.15;100180.44;4412876;32;32048;-83
2023/08/15 10:05:25;;;;;;;1.33;1.10;;;;;;;33.82;30.53;100181.22;4401970;32;33843;-82
2023/08/15 10:07:53;;;;;;;0.85;0.70;;;;;;;34.02;30.62;100185.91;4411043;32;32858;-82
2023/08/15 10:10:21;;;;;;;20.37;2.62;;;;;;;33.80;31.31;100177.84;4412555;32;34620;-82
2023/08/15 10:12:50;;;;;;;2.40;1.27;;;;;;;33.98;32.58;100181.91;4424255;32;34592;-82
2023/08/15 10:15:19;;;;;;;8.32;0.80;;;;;;;34.39;30.52;100170.72;4412674;32;33216;-82
2023/08/15 10:17:48;;;;;;;2.15;0.75;;;;;;;34.29;31.10;100187.59;4412868;32;32802;-83
2023/08/15 10:20:18;;;;;;;2.25;1.42;;;;;;;34.21;30.53;100190.53;4414880;32;34161;-82
2023/08/15 10:22:50;;;;;;;0.60;0.60;;;;;;;34.51;30.34;100184.62;4423879;32;34308;-83
2023/08/15 10:25:24;;;;;;;1.08;1.02;;;;;;;34.83;31.22;100180.13;4424582;32;32965;-82
2023/08/15 10:27:54;;;;;;;0.77;0.77;;;;;;;34.98;29.98;100174.38;4427588;32;32814;-83
2023/08/15 10:30:29;;;;;;;0.52;0.52;;;;;;;34.42;30.10;100185.87;4415234;32;33235;-82
2023/08/15 10:33:11;;;;;;;1.05;1.05;;;;;;;34.00;31.49;100188.03;4403097;32;33473;-83
2023/08/15 10:36:02;;;;;;;1.37;1.27;;;;;;;34.26;28.81;100182.53;4440173;32;32547;-82
2023/08/15 10:38:32;;;;;;;0.87;0.87;;;;;;;34.97;28.50;100167.22;4428754;32;33747;-82
2023/08/15 10:41:03;;;;;;;1.02;0.98;;;;;;;35.01;29.43;100168.47;4421906;32;32323;-83
2023/08/15 10:43:33;;;;;;;1.65;0.68;;;;;;;34.99;28.10;100155.00;4427027;32;34857;-82
2023/08/15 10:46:06;;;;;;;1.10;0.70;;;;;;;35.23;28.26;100161.63;4409736;32;32895;-82
2023/08/15 10:48:37;;;;;;;0.55;0.55;;;;;;;35.12;27.06;100156.81;4425251;32;33483;-82
2023/08/15 10:51:33;;;;;;;0.95;0.95;;;;;;;35.94;24.93;100156.91;4427951;32;33711;-83
2023/08/15 10:54:03;;;;;;;0.45;0.43;;;;;;;35.87;25.50;100152.34;4426252;32;33700;-83
2023/08/15 10:56:33;;;;;;;1.30;0.73;;;;;;;35.91;26.92;100148.06;4402461;32;32095;-82
2023/08/15 10:59:14;;;;;;;1.90;1.37;;;;;;;35.47;27.39;100153.72;4409839;32;33089;-82
2023/08/15 11:01:44;;;;;;;3.35;0.90;;;;;;;35.65;27.21;100153.75;4424132;32;32775;-82
2023/08/15 11:04:16;;;;;;;2.05;1.05;;;;;;;35.90;26.32;100151.91;4423891;32;34081;-82
2023/08/15 11:06:48;;;;;;;1.12;1.02;;;;;;;36.09;25.20;100147.31;4399385;32;32877;-83
2023/08/15 11:09:16;;;;;;;0.77;0.62;;;;;;;35.69;25.81;100144.03;4409247;32;32619;-83
2023/08/15 11:11:45;;;;;;;0.57;0.57;;;;;;;35.65;27.28;100149.09;4409279;32;34030;-83
2023/08/15 11:14:16;;;;;;;1.75;1.65;;;;;;;36.07;27.25;100143.94;4411182;32;33726;-82
2023/08/15 11:16:45;;;;;;;0.28;0.28;;;;;;;36.45;26.17;100147.62;4412615;32;33011;-82
2023/08/15 11:19:17;;;;;;;1.40;0.90;;;;;;;36.67;25.76;100146.94;4424628;32;34034;-83
2023/08/15 11:21:46;;;;;;;0.68;0.68;;;;;;;36.81;25.32;100133.88;4408772;32;34327;-83
2023/08/15 11:24:14;;;;;;;0.95;0.82;;;;;;;36.48;25.67;100145.28;4400830;32;33553;-83
2023/08/15 11:26:42;;;;;;;1.15;0.98;;;;;;;36.26;25.59;100142.06;4399173;32;32672;-83
2023/08/15 11:29:12;;;;;;;1.25;1.15;;;;;;;36.50;25.52;100134.88;4414344;32;33157;-83
2023/08/15 11:31:41;;;;;;;0.57;0.57;;;;;;;36.60;25.67;100134.34;4424423;32;34632;-83
2023/08/15 11:34:11;;;;;;;15.88;1.52;;;;;;;36.58;24.21;100125.47;4413066;32;32490;-83